Time;durP1;ratioP1;P1;durP2;ratioP2;P2;SDS_P1;SDS_P2;PMS_P1;PMS_P2;Temp;Humidity;BMP_temperature;BMP_pressure;BME280_temperature;BME280_humidity;BME280_pressure;Samples;Min_cycle;Max_cycle;Signal;HPM_P1;HPM_P2
2023/05/29 00:00:57;;;;;;;10.15;6.15;;;;;;;;;;6186518;23;20423;-82
2023/05/29 00:04:00;;;;;;;10.10;5.80;;;16.60;90.80;;;;;;6162752;23;20419;-82
2023/05/29 00:06:27;;;;;;;11.25;6.47;;;;;;;;;;6161590;23;20013;-82
2023/05/29 00:09:46;;;;;;;10.18;6.10;;;16.50;90.80;;;;;;6186268;23;20098;-80
2023/05/29 00:13:12;;;;;;;11.65;6.47;;;16.50;90.80;;;;;;6186775;23;20072;-82
2023/05/29 00:15:41;;;;;;;8.27;5.15;;;;;;;;;;6165774;23;20013;-82
2023/05/29 00:18:07;;;;;;;9.30;5.10;;;;;;;;;;6188928;23;19997;-82
2023/05/29 00:20:39;;;;;;;10.50;5.25;;;;;;;;;;6163722;23;20080;-83
2023/05/29 00:23:06;;;;;;;8.77;4.82;;;;;;;;;;6172627;23;20013;-83
2023/05/29 00:25:32;;;;;;;9.63;5.22;;;;;;;;;;6162755;23;19997;-82
2023/05/29 00:28:01;;;;;;;8.90;4.97;;;;;;;;;;6190914;23;20032;-82
2023/05/29 00:30:28;;;;;;;10.77;5.30;;;;;;;;;;6174405;23;20020;-83
2023/05/29 00:32:54;;;;;;;9.55;5.90;;;;;;;;;;6189841;23;20005;-82
2023/05/29 00:35:21;;;;;;;10.10;5.32;;;;;;;;;;6151591;23;20047;-83
2023/05/29 00:37:47;;;;;;;10.05;5.82;;;;;;;;;;6211588;23;20040;-82
2023/05/29 00:40:14;;;;;;;9.30;5.60;;;;;;;;;;6211968;23;20012;-84
2023/05/29 00:42:40;;;;;;;10.65;5.65;;;;;;;;;;6210930;23;20041;-83
2023/05/29 00:45:07;;;;;;;13.13;6.45;;;;;;;;;;6186263;23;20013;-84
2023/05/29 00:47:33;;;;;;;10.40;6.03;;;;;;;;;;6186276;23;20012;-82
2023/05/29 00:49:59;;;;;;;17.20;7.32;;;;;;;;;;6185239;23;20009;-83
2023/05/29 00:52:26;;;;;;;12.57;7.30;;;;;;;;;;6185621;23;20073;-84
2023/05/29 00:54:56;;;;;;;16.70;6.95;;;;;;;;;;6185968;23;20015;-83
2023/05/29 00:57:23;;;;;;;11.80;7.70;;;;;;;;;;6211235;23;20017;-83
2023/05/29 00:59:49;;;;;;;11.32;6.85;;;;;;;;;;6186472;23;20271;-83
2023/05/29 01:02:18;;;;;;;11.60;6.80;;;16.00;93.90;;;;;;6211715;23;19989;-83
2023/05/29 01:04:46;;;;;;;13.45;7.18;;;16.00;94.10;;;;;;6211785;23;20000;-82
2023/05/29 01:07:13;;;;;;;13.20;7.40;;;;;;;;;;6185457;23;20020;-84
2023/05/29 01:09:45;;;;;;;11.45;7.28;;;16.00;94.20;;;;;;6211500;23;19985;-84
2023/05/29 01:12:38;;;;;;;12.00;7.13;;;16.00;94.30;;;;;;6186028;23;20008;-83
2023/05/29 01:15:04;;;;;;;12.65;6.97;;;;;;;;;;6186200;23;20011;-83
2023/05/29 01:18:01;;;;;;;12.52;7.05;;;16.00;94.30;;;;;;6211306;23;20013;-84
2023/05/29 01:20:46;;;;;;;11.32;6.20;;;;;;;;;;6191870;23;19989;-83
2023/05/29 01:23:24;;;;;;;7.47;4.47;;;;;;;;;;6211139;23;19997;-83
2023/05/29 01:26:03;;;;;;;8.98;4.50;;;16.00;92.60;;;;;;6210756;23;20083;-82
2023/05/29 01:28:34;;;;;;;11.43;4.88;;;;;;;;;;6179312;23;20012;-82
2023/05/29 01:31:01;;;;;;;;;;;16.00;92.60;;;;;;6190904;23;20012;-82
2023/05/29 01:33:29;;;;;;;9.20;5.00;;;;;;;;;;6137391;23;20361;-82
2023/05/29 01:35:56;;;;;;;8.85;5.10;;;;;;;;;;6163609;23;20462;-82
2023/05/29 01:38:22;;;;;;;8.65;4.22;;;;;;;;;;6163330;23;20033;-83
2023/05/29 01:40:48;;;;;;;9.27;4.60;;;;;;;;;;6169258;23;20043;-83
2023/05/29 01:43:15;;;;;;;8.00;4.80;;;;;;;;;;6191612;23;20005;-82
2023/05/29 01:45:42;;;;;;;10.05;4.57;;;;;;;;;;6162475;23;20001;-83
2023/05/29 01:48:08;;;;;;;7.38;4.72;;;;;;;;;;6187944;23;20001;-81
2023/05/29 01:50:35;;;;;;;7.78;4.57;;;;;;;;;;6176451;23;20048;-80
2023/05/29 01:53:01;;;;;;;12.18;4.60;;;;;;;;;;6212458;23;19996;-83
2023/05/29 01:55:28;;;;;;;9.75;4.88;;;;;;;;;;6187020;23;19997;-83
2023/05/29 01:57:55;;;;;;;9.10;5.60;;;;;;;;;;6211251;23;20008;-83
2023/05/29 02:05:28;;;;;;;7.07;4.25;;;;;;;;;;6221045;23;20048;-81
2023/05/29 02:07:54;;;;;;;13.55;4.95;;;;;;;;;;6192581;23;20040;-82
2023/05/29 02:10:21;;;;;;;8.00;4.28;;;;;;;;;;6220283;23;20016;-82
2023/05/29 02:12:48;;;;;;;8.43;4.30;;;;;;;;;;6191656;23;20009;-81
2023/05/29 02:15:14;;;;;;;8.32;4.70;;;;;;;;;;6193435;23;20004;-82
2023/05/29 02:17:41;;;;;;;9.82;5.13;;;;;;;;;;6219554;23;20015;-82
2023/05/29 02:20:07;;;;;;;8.75;4.80;;;;;;;;;;6191219;23;20009;-82
2023/05/29 02:22:34;;;;;;;11.20;5.38;;;;;;;;;;6190395;23;20096;-82
2023/05/29 02:25:01;;;;;;;8.38;4.60;;;;;;;;;;6192991;23;20439;-84
2023/05/29 02:27:27;;;;;;;11.63;4.57;;;;;;;;;;6192780;23;20255;-83
2023/05/29 02:29:56;;;;;;;13.00;5.10;;;;;;;;;;6193055;23;20395;-83
2023/05/29 02:32:22;;;;;;;8.10;4.05;;;;;;;;;;6193943;23;20079;-82
2023/05/29 02:34:49;;;;;;;9.02;4.45;;;;;;;;;;6221215;23;19997;-83
2023/05/29 02:37:15;;;;;;;8.13;4.35;;;;;;;;;;6194134;23;20005;-83
2023/05/29 02:39:42;;;;;;;7.75;3.97;;;;;;;;;;6192735;23;20083;-82
2023/05/29 02:42:10;;;;;;;6.72;4.07;;;15.70;93.50;;;;;;6194016;23;20056;-82
2023/05/29 02:44:37;;;;;;;6.63;4.00;;;;;;;;;;6195402;23;20016;-82
2023/05/29 02:47:03;;;;;;;8.40;4.15;;;;;;;;;;6194607;23;20008;-80
2023/05/29 02:49:30;;;;;;;7.15;4.10;;;;;;;;;;6223411;23;20008;-82
2023/05/29 02:51:56;;;;;;;5.55;3.25;;;;;;;;;;6197156;23;20008;-82
2023/05/29 02:54:26;;;;;;;7.97;3.97;;;;;;;;;;6220584;23;20000;-82
2023/05/29 02:56:54;;;;;;;8.02;3.85;;;;;;;;;;6220769;23;20008;-80
2023/05/29 02:59:21;;;;;;;7.25;3.97;;;;;;;;;;6222489;23;20000;-82
2023/05/29 03:01:48;;;;;;;8.52;3.95;;;;;;;;;;6197527;23;20036;-82
2023/05/29 03:04:15;;;;;;;6.07;3.70;;;;;;;;;;6206365;23;20012;-83
2023/05/29 03:06:41;;;;;;;10.35;4.55;;;;;;;;;;6198604;23;20009;-82
2023/05/29 03:09:07;;;;;;;7.90;3.85;;;;;;;;;;6195855;23;20003;-82
2023/05/29 03:11:35;;;;;;;10.27;3.80;;;;;;;;;;6193484;23;20001;-82
2023/05/29 03:14:03;;;;;;;6.90;3.72;;;;;;;;;;6220106;23;20370;-81
2023/05/29 03:16:29;;;;;;;6.15;3.40;;;;;;;;;;6193049;23;20016;-82
2023/05/29 03:18:56;;;;;;;7.25;3.80;;;;;;;;;;6219143;23;20011;-83
2023/05/29 03:21:23;;;;;;;7.95;4.32;;;;;;;;;;6220852;23;20051;-82
2023/05/29 03:23:49;;;;;;;8.32;4.10;;;;;;;;;;6221024;23;20044;-81
2023/05/29 03:26:16;;;;;;;7.53;3.55;;;;;;;;;;6195606;23;20012;-82
2023/05/29 03:28:42;;;;;;;5.65;3.35;;;;;;;;;;6225544;23;19997;-80
2023/05/29 03:31:09;;;;;;;8.35;3.60;;;;;;;;;;6207497;23;20000;-82
2023/05/29 03:33:38;;;;;;;7.07;3.88;;;;;;;;;;6238436;23;19992;-81
2023/05/29 03:36:05;;;;;;;7.60;3.97;;;;;;;;;;6208112;23;20031;-81
2023/05/29 03:38:31;;;;;;;8.63;3.97;;;;;;;;;;6190875;23;20387;-80
2023/05/29 03:40:58;;;;;;;8.20;3.90;;;;;;;;;;6190747;23;20008;-81
2023/05/29 03:43:24;;;;;;;8.40;3.92;;;;;;;;;;6190526;23;20012;-82
2023/05/29 03:45:51;;;;;;;8.45;3.75;;;;;;;;;;6190227;23;20008;-81
2023/05/29 03:48:18;;;;;;;8.38;3.83;;;15.30;94.50;;;;;;6216994;23;20000;-81
2023/05/29 03:50:45;;;;;;;8.27;4.28;;;;;;;;;;6189721;23;20070;-81
2023/05/29 03:53:12;;;;;;;7.68;3.70;;;;;;;;;;6189386;23;20019;-80
2023/05/29 03:55:39;;;;;;;8.35;4.10;;;;;;;;;;6189967;23;20058;-81
2023/05/29 04:00:41;;;;;;;6.75;3.80;;;;;;;;;;6188181;23;20025;-82
2023/05/29 04:03:07;;;;;;;9.38;4.47;;;;;;;;;;6163122;23;20005;-83
2023/05/29 04:05:34;;;;;;;9.23;4.60;;;;;;;;;;6158750;23;20020;-83
2023/05/29 04:08:04;;;;;;;6.97;3.53;;;15.30;94.60;;;;;;6157572;23;20029;-82
2023/05/29 04:10:33;;;;;;;7.45;4.03;;;;;;;;;;6183312;23;20005;-82
2023/05/29 04:13:00;;;;;;;6.20;3.42;;;;;;;;;;6158213;23;20008;-82
2023/05/29 04:15:27;;;;;;;7.10;3.53;;;;;;;;;;6157331;23;20005;-82
2023/05/29 04:17:53;;;;;;;5.78;3.47;;;;;;;;;;6181790;23;20065;-83
2023/05/29 04:20:20;;;;;;;6.97;3.30;;;;;;;;;;6183510;23;20080;-82
2023/05/29 04:22:46;;;;;;;6.43;3.28;;;;;;;;;;6185100;23;20359;-82
2023/05/29 04:25:13;;;;;;;11.70;3.42;;;;;;;;;;6193091;23;20287;-82
2023/05/29 04:27:40;;;;;;;10.30;3.80;;;;;;;;;;6186616;23;20005;-82
2023/05/29 04:30:09;;;;;;;6.07;3.05;;;;;;;;;;6156720;23;20012;-82
2023/05/29 04:32:36;;;;;;;8.10;3.47;;;;;;;;;;6184491;23;19997;-83
2023/05/29 04:35:02;;;;;;;6.35;3.05;;;;;;;;;;6156351;23;20347;-83
2023/05/29 04:37:37;;;;;;;6.60;3.42;;;;;;;;;;6184228;23;20427;-83
2023/05/29 04:40:07;;;;;;;9.15;3.42;;;;;;;;;;6160319;23;20127;-82
2023/05/29 04:42:34;;;;;;;7.45;3.47;;;15.40;94.10;;;;;;6156428;23;20096;-82
2023/05/29 04:45:00;;;;;;;7.60;3.10;;;;;;;;;;6157703;23;20084;-82
2023/05/29 04:47:27;;;;;;;7.35;3.42;;;;;;;;;;6185625;23;20039;-81
2023/05/29 04:49:54;;;;;;;8.05;3.15;;;15.50;94.30;;;;;;6182476;23;20373;-82
2023/05/29 04:52:21;;;;;;;8.63;3.67;;;;;;;;;;6157767;23;20020;-82
2023/05/29 04:54:48;;;;;;;5.72;3.22;;;;;;;;;;6185350;23;20092;-82
2023/05/29 04:57:15;;;;;;;6.75;3.72;;;;;;;;;;6183121;23;20005;-81
2023/05/29 04:59:42;;;;;;;7.10;3.00;;;;;;;;;;6154969;23;20009;-81
2023/05/29 05:02:09;;;;;;;6.88;3.17;;;;;;;;;;6132124;23;20047;-81
2023/05/29 05:04:37;;;;;;;8.23;3.17;;;16.00;93.50;;;;;;6185060;23;20052;-81
2023/05/29 05:07:06;;;;;;;7.25;3.25;;;;;;;;;;6158093;23;20013;-81
2023/05/29 05:09:33;;;;;;;6.78;3.40;;;;;;;;;;6159030;23;20006;-81
2023/05/29 05:11:59;;;;;;;10.85;3.50;;;;;;;;;;6160969;23;20048;-81
2023/05/29 05:14:25;;;;;;;6.75;2.97;;;;;;;;;;6160712;23;20025;-82
2023/05/29 05:16:52;;;;;;;9.50;3.10;;;;;;;;;;6161629;23;20015;-81
2023/05/29 05:19:18;;;;;;;6.65;3.15;;;;;;;;;;6164948;23;20012;-81
2023/05/29 05:21:45;;;;;;;5.40;2.58;;;;;;;;;;6165101;23;20009;-82
2023/05/29 05:24:11;;;;;;;7.32;3.38;;;;;;;;;;6166612;23;20069;-82
2023/05/29 05:26:41;;;;;;;7.70;3.22;;;19.40;87.00;;;;;;6168697;23;20089;-82
2023/05/29 05:29:10;;;;;;;7.68;3.10;;;20.10;84.50;;;;;;6169674;23;19997;-83
2023/05/29 05:31:48;;;;;;;7.45;3.03;;;20.40;83.10;;;;;;6177219;23;20016;-81
2023/05/29 05:34:21;;;;;;;6.00;2.97;;;;;;;;;;6179107;23;20013;-81
2023/05/29 05:36:49;;;;;;;6.03;3.13;;;;;;;;;;6184647;23;20008;-80
2023/05/29 05:39:19;;;;;;;5.50;2.80;;;;;;;;;;6208885;23;20040;-81
2023/05/29 05:41:46;;;;;;;4.65;2.70;;;;;;;;;;6186086;23;20001;-83
2023/05/29 05:44:13;;;;;;;8.00;3.05;;;;;;;;;;6185129;23;20013;-82
2023/05/29 05:46:41;;;;;;;5.78;2.80;;;;;;;;;;6207439;23;20021;-81
2023/05/29 05:49:08;;;;;;;7.13;3.08;;;;;;;;;;6201964;23;20004;-84
2023/05/29 05:51:35;;;;;;;6.78;3.13;;;;;;;;;;6200671;23;20024;-83
2023/05/29 05:54:02;;;;;;;7.72;3.50;;;;;;;;;;6177794;23;20008;-82
2023/05/29 05:56:28;;;;;;;5.45;3.13;;;;;;;;;;6186698;23;19997;-83
2023/05/29 05:58:56;;;;;;;7.10;2.90;;;;;;;;;;6186832;23;20005;-84
2023/05/29 06:01:23;;;;;;;6.85;2.72;;;;;;;;;;6212441;23;19986;-84
2023/05/29 06:03:49;;;;;;;5.63;2.83;;;;;;;;;;6210338;23;20060;-83
2023/05/29 06:06:17;;;;;;;9.20;3.28;;;;;;;;;;6207811;23;20009;-80
2023/05/29 06:08:45;;;;;;;3.75;2.50;;;20.50;80.50;;;;;;6208159;23;19991;-82
2023/05/29 06:11:11;;;;;;;6.28;2.70;;;;;;;;;;6208192;23;20009;-82
2023/05/29 06:13:37;;;;;;;6.30;3.20;;;;;;;;;;6202126;23;20013;-80
2023/05/29 06:16:05;;;;;;;6.47;2.67;;;;;;;;;;6204264;23;20001;-82
2023/05/29 06:18:35;;;;;;;4.63;2.38;;;;;;;;;;6203298;23;20001;-83
2023/05/29 06:21:12;;;;;;;6.80;2.72;;;20.10;81.50;;;;;;6205035;23;20027;-84
2023/05/29 06:23:47;;;;;;;6.18;3.10;;;20.20;81.80;;;;;;6206959;23;20013;-82
2023/05/29 06:26:27;;;;;;;7.43;3.00;;;20.20;81.70;;;;;;6207258;23;20009;-83
2023/05/29 06:29:06;;;;;;;6.95;3.03;;;20.40;80.90;;;;;;6205561;23;20009;-82
2023/05/29 06:31:40;;;;;;;4.18;2.78;;;20.40;80.60;;;;;;6184418;23;19989;-82
2023/05/29 06:34:12;;;;;;;6.25;2.70;;;20.30;80.50;;;;;;6206765;23;20059;-84
2023/05/29 06:36:41;;;;;;;8.57;3.10;;;;;;;;;;6211206;23;20004;-85
2023/05/29 06:39:08;;;;;;;5.88;3.15;;;;;;;;;;6206279;23;20067;-84
2023/05/29 06:41:45;;;;;;;7.35;2.95;;;20.50;80.00;;;;;;6208726;23;20017;-82
2023/05/29 06:44:18;;;;;;;7.20;3.00;;;20.50;79.30;;;;;;6201734;23;20008;-83
2023/05/29 06:46:46;;;;;;;6.60;2.70;;;;;;;;;;6201263;23;20031;-82
2023/05/29 06:49:16;;;;;;;4.75;2.95;;;;;;;;;;6200217;23;20001;-82
2023/05/29 06:51:45;;;;;;;5.65;2.70;;;20.20;80.40;;;;;;6197019;23;20415;-82
2023/05/29 06:54:20;;;;;;;5.40;2.70;;;20.20;80.10;;;;;;6194680;23;20013;-82
2023/05/29 06:56:48;;;;;;;5.85;2.60;;;;;;;;;;6197751;23;20017;-81
2023/05/29 06:59:17;;;;;;;5.15;2.53;;;;;;;;;;6174641;23;20021;-83
2023/05/29 07:02:16;;;;;;;5.93;2.83;;;20.10;79.90;;;;;;6207098;23;20060;-82
2023/05/29 07:04:50;;;;;;;5.95;2.60;;;;;;;;;;6055905;23;20014;-83
2023/05/29 07:07:48;;;;;;;5.90;2.65;;;20.10;79.90;;;;;;6080608;23;20034;-82
2023/05/29 07:11:04;;;;;;;7.15;2.88;;;20.30;79.50;;;;;;6079269;23;20071;-82
2023/05/29 07:24:56;;;;;;;4.72;2.60;;;20.60;78.50;;;;;;6119094;23;20070;-85
2023/05/29 07:34:04;;;;;;;5.75;2.70;;;;;;;;;;6202028;23;20067;-82
2023/05/29 07:40:37;;;;;;;5.50;2.53;;;20.90;76.90;;;;;;6240559;23;20301;-84
2023/05/29 07:43:45;;;;;;;6.05;2.67;;;20.80;76.70;;;;;;6197469;23;20035;-83
2023/05/29 07:46:15;;;;;;;5.82;2.63;;;;;;;;;;6207736;23;20058;-82
2023/05/29 07:48:45;;;;;;;5.30;2.72;;;;;;;;;;6225648;23;20012;-83
2023/05/29 07:51:13;;;;;;;5.85;2.97;;;;;;;;;;6221246;23;19996;-82
2023/05/29 07:53:50;;;;;;;5.60;2.70;;;21.00;76.00;;;;;;6218925;23;20001;-82
2023/05/29 07:56:17;;;;;;;4.50;2.50;;;;;;;;;;6194608;23;20091;-81
2023/05/29 07:58:53;;;;;;;6.15;2.55;;;21.10;76.90;;;;;;6197227;23;20012;-83
2023/05/29 08:01:23;;;;;;;7.97;2.90;;;;;;;;;;6173284;23;20015;-82
2023/05/29 08:03:49;;;;;;;5.63;2.33;;;;;;;;;;6194826;23;20001;-81
2023/05/29 08:06:20;;;;;;;5.35;2.40;;;;;;;;;;6223223;23;20128;-82
2023/05/29 08:09:30;;;;;;;7.10;3.28;;;21.50;76.50;;;;;;6221001;23;20028;-82
2023/05/29 08:11:57;;;;;;;6.50;3.08;;;;;;;;;;6197795;23;20006;-82
2023/05/29 08:14:33;;;;;;;8.18;2.72;;;;;;;;;;6224459;23;20335;-85
2023/05/29 08:17:13;;;;;;;8.35;2.70;;;21.70;76.20;;;;;;6228624;23;20461;-82
2023/05/29 08:20:34;;;;;;;6.13;2.50;;;21.80;75.60;;;;;;6207314;23;20010;-85
2023/05/29 08:27:19;;;;;;;6.88;2.95;;;21.80;75.00;;;;;;6073577;23;20232;-83
2023/05/29 09:20:23;;;;;;;7.93;3.10;;;23.60;73.50;;;;;;6187245;23;20032;-78
2023/05/29 09:23:11;;;;;;;6.30;3.25;;;23.70;72.20;;;;;;6190744;23;20005;-78
2023/05/29 09:25:44;;;;;;;6.03;3.00;;;23.70;72.90;;;;;;6190763;23;20005;-78
2023/05/29 09:28:28;;;;;;;7.05;2.80;;;;;;;;;;6189865;23;20028;-78
2023/05/29 09:30:57;;;;;;;6.32;3.25;;;;;;;;;;6163725;23;20032;-79
2023/05/29 09:33:35;;;;;;;5.88;3.63;;;24.00;73.00;;;;;;6164312;23;20005;-78
2023/05/29 09:36:02;;;;;;;6.25;2.95;;;;;;;;;;6141073;23;20084;-82
2023/05/29 09:38:41;;;;;;;5.85;3.08;;;;;;;;;;6190427;23;20012;-78
2023/05/29 09:41:53;;;;;;;4.43;2.63;;;24.30;71.10;;;;;;6189551;23;20017;-79
2023/05/29 09:44:28;;;;;;;7.45;3.25;;;;;;;;;;6189243;23;20425;-79
2023/05/29 09:46:59;;;;;;;6.22;3.10;;;24.20;70.40;;;;;;6189072;23;20434;-79
2023/05/29 09:49:34;;;;;;;5.35;3.10;;;;;;;;;;6161141;23;20476;-80
2023/05/29 09:52:00;;;;;;;9.23;3.42;;;;;;;;;;6161949;23;19998;-79
2023/05/29 09:54:31;;;;;;;6.53;3.25;;;;;;;;;;6187587;23;20088;-79
2023/05/29 09:57:03;;;;;;;5.68;3.13;;;24.30;70.60;;;;;;6136071;23;20353;-78
2023/05/29 09:59:30;;;;;;;5.72;2.67;;;;;;;;;;6158914;23;20009;-78
2023/05/29 10:02:07;;;;;;;6.05;2.90;;;;;;;;;;6185838;23;20005;-78
2023/05/29 10:04:40;;;;;;;6.18;3.30;;;24.30;72.00;;;;;;6159257;23;20001;-80
2023/05/29 10:07:29;;;;;;;4.88;3.03;;;24.40;71.50;;;;;;6161246;23;20013;-80
2023/05/29 10:10:01;;;;;;;8.30;2.90;;;24.40;71.40;;;;;;6163047;23;20344;-80
2023/05/29 10:12:28;;;;;;;5.20;2.85;;;;;;;;;;6187618;23;20084;-78
2023/05/29 10:15:16;;;;;;;6.45;2.83;;;24.60;71.80;;;;;;6160686;23;20473;-77
2023/05/29 10:18:28;;;;;;;6.93;3.33;;;24.70;71.70;;;;;;6186253;23;20058;-77
2023/05/29 10:21:00;;;;;;;6.78;3.10;;;24.70;70.90;;;;;;6036428;23;20027;-78
2023/05/29 10:23:28;;;;;;;8.88;3.22;;;24.70;71.50;;;;;;6014885;23;20022;-77
2023/05/29 10:26:04;;;;;;;4.80;2.92;;;24.90;71.50;;;;;;6091624;23;20009;-77
2023/05/29 10:28:41;;;;;;;6.35;2.95;;;25.00;71.10;;;;;;6160793;23;19997;-77
2023/05/29 10:31:23;;;;;;;6.20;2.88;;;24.90;71.00;;;;;;6184927;23;20011;-77
2023/05/29 10:33:57;;;;;;;5.72;3.10;;;;;;;;;;6161086;23;20001;-78
2023/05/29 10:36:30;;;;;;;6.80;3.30;;;25.00;70.80;;;;;;6185155;23;20031;-77
2023/05/29 10:38:56;;;;;;;5.55;2.85;;;;;;;;;;6160264;23;20406;-78
2023/05/29 10:41:28;;;;;;;7.00;3.22;;;;;;;;;;6161852;23;20057;-79
2023/05/29 10:43:59;;;;;;;5.38;2.60;;;25.20;70.40;;;;;;6161690;23;20009;-80
2023/05/29 10:47:12;;;;;;;6.10;3.22;;;25.20;69.60;;;;;;6162703;23;20020;-79
2023/05/29 10:49:50;;;;;;;6.28;3.38;;;25.00;70.70;;;;;;6060334;23;20026;-83
2023/05/29 10:52:21;;;;;;;6.43;3.25;;;;;;;;;;6041268;23;20060;-80
2023/05/29 10:55:12;;;;;;;7.10;2.90;;;;;;;;;;6013740;23;20464;-80
2023/05/29 10:57:50;;;;;;;8.13;3.00;;;25.30;69.90;;;;;;6041674;23;20081;-80
2023/05/29 11:00:41;;;;;;;5.80;2.88;;;25.30;70.10;;;;;;6054093;23;20362;-80
2023/05/29 11:03:25;;;;;;;5.70;2.90;;;;;;;;;;6146362;23;20037;-81
2023/05/29 11:06:10;;;;;;;8.35;3.20;;;25.40;68.10;;;;;;6194540;23;20005;-83
2023/05/29 11:08:55;;;;;;;6.55;3.20;;;25.50;69.00;;;;;;6194311;23;20009;-81
2023/05/29 11:11:28;;;;;;;7.15;3.40;;;;;;;;;;6168724;23;20019;-83
2023/05/29 11:14:07;;;;;;;8.07;3.22;;;25.30;68.70;;;;;;6196015;23;20068;-81
2023/05/29 11:16:58;;;;;;;8.77;3.50;;;25.40;69.20;;;;;;6193764;23;20013;-83
2023/05/29 11:19:38;;;;;;;;;;;;;;;;;;;;;
2023/05/29 11:22:27;;;;;;;6.45;3.10;;;25.70;68.30;;;;;;6189600;23;20076;-80
2023/05/29 11:25:04;;;;;;;6.40;3.00;;;;;;;;;;6184175;23;20001;-80
2023/05/29 11:27:31;;;;;;;8.45;3.38;;;;;;;;;;6187416;23;20079;-79
2023/05/29 11:30:00;;;;;;;5.90;3.10;;;;;;;;;;6188371;23;20001;-80
2023/05/29 11:32:39;;;;;;;5.82;3.30;;;26.00;67.80;;;;;;6188280;23;19996;-80
2023/05/29 11:35:20;;;;;;;5.95;3.42;;;;;;;;;;6158978;23;20021;-80
2023/05/29 11:37:47;;;;;;;5.70;3.40;;;;;;;;;;6186186;23;20012;-79
2023/05/29 11:40:19;;;;;;;7.90;3.58;;;;;;;;;;6188862;23;20057;-78
2023/05/29 11:42:51;;;;;;;7.22;3.40;;;25.90;68.20;;;;;;6187299;23;20063;-79
2023/05/29 11:45:20;;;;;;;5.95;3.53;;;;;;;;;;6186491;23;19997;-79
2023/05/29 11:50:34;;;;;;;6.50;3.72;;;;;;;;;;6216650;23;20025;-79
2023/05/29 11:53:06;;;;;;;7.43;3.45;;;;;;;;;;6190653;23;20007;-79
2023/05/29 11:55:37;;;;;;;6.07;3.60;;;;;;;;;;6218450;23;20428;-79
2023/05/29 11:58:06;;;;;;;6.18;3.40;;;26.00;68.50;;;;;;6192910;23;20433;-79
2023/05/29 12:00:35;;;;;;;4.88;3.22;;;;;;;;;;6192116;23;20156;-79
2023/05/29 12:03:17;;;;;;;5.97;3.60;;;26.00;67.40;;;;;;6192161;23;20000;-79
2023/05/29 12:05:52;;;;;;;6.57;3.30;;;25.70;67.10;;;;;;6217436;23;20523;-79
2023/05/29 12:08:30;;;;;;;5.97;3.17;;;25.70;67.80;;;;;;6217651;23;20001;-80
2023/05/29 12:11:34;;;;;;;7.18;3.60;;;25.80;67.10;;;;;;6191550;23;20087;-79
2023/05/29 12:14:00;;;;;;;9.10;3.92;;;;;;;;;;6187553;23;20078;-79
2023/05/29 12:16:28;;;;;;;6.78;3.60;;;26.10;67.60;;;;;;6215037;23;20000;-80
2023/05/29 12:18:55;;;;;;;4.75;3.08;;;;;;;;;;6188102;23;20032;-79
2023/05/29 12:21:23;;;;;;;5.97;3.75;;;26.10;66.80;;;;;;6215862;23;20433;-78
2023/05/29 12:23:53;;;;;;;7.15;3.72;;;26.20;66.70;;;;;;6214659;23;20349;-78
2023/05/29 12:26:23;;;;;;;6.25;3.60;;;26.20;66.70;;;;;;6189302;23;20045;-77
2023/05/29 12:28:51;;;;;;;8.48;3.97;;;26.20;67.10;;;;;;6189230;23;20004;-78
2023/05/29 12:31:30;;;;;;;7.65;3.65;;;;;;;;;;6165094;23;20005;-77
2023/05/29 12:34:15;;;;;;;10.13;4.10;;;;;;;;;;6216330;23;20084;-77
2023/05/29 12:36:47;;;;;;;8.57;3.72;;;;;;;;;;6218108;23;20008;-79
2023/05/29 12:39:14;;;;;;;6.20;3.90;;;;;;;;;;6189922;23;20039;-80
2023/05/29 12:41:41;;;;;;;6.20;3.85;;;;;;;;;;6215806;23;20001;-79
2023/05/29 12:44:08;;;;;;;7.03;3.85;;;;;;;;;;6215966;23;20325;-78
2023/05/29 12:46:45;;;;;;;6.60;3.78;;;26.20;65.90;;;;;;6191228;23;20005;-79
2023/05/29 12:50:00;;;;;;;6.78;3.35;;;26.20;65.90;;;;;;6214297;23;20487;-78
2023/05/29 12:52:09;;;;;;;6.07;3.10;;;;;;;;;;6185964;23;20001;-80
2023/05/29 12:54:36;;;;;;;5.82;3.28;;;;;;;;;;6190344;23;20009;-78
2023/05/29 12:57:02;;;;;;;5.03;3.30;;;;;;;;;;6188537;23;20005;-79
2023/05/29 12:59:28;;;;;;;6.85;3.30;;;;;;;;;;6218334;23;20008;-79
2023/05/29 13:01:55;;;;;;;6.38;3.40;;;;;;;;;;6216489;23;20076;-80
2023/05/29 13:04:24;;;;;;;5.97;3.05;;;;;;;;;;6190886;23;20001;-79
2023/05/29 13:06:53;;;;;;;6.70;3.50;;;;;;;;;;6191541;23;19997;-79
2023/05/29 13:09:20;;;;;;;8.27;3.33;;;;;;;;;;6190481;23;20071;-79
2023/05/29 13:11:47;;;;;;;7.15;3.00;;;26.40;65.00;;;;;;6193730;23;20000;-79
2023/05/29 13:14:14;;;;;;;6.93;3.40;;;;;;;;;;6218574;23;20009;-78
2023/05/29 13:16:41;;;;;;;4.53;3.10;;;;;;;;;;6191862;23;20078;-78
2023/05/29 13:19:07;;;;;;;7.40;3.72;;;;;;;;;;6166309;23;20009;-78
2023/05/29 13:21:35;;;;;;;6.38;3.20;;;;;;;;;;6189487;23;20028;-80
2023/05/29 13:24:01;;;;;;;5.05;3.20;;;;;;;;;;6189968;23;20410;-80
2023/05/29 13:26:27;;;;;;;5.88;3.50;;;;;;;;;;6215806;23;20419;-79
2023/05/29 13:28:54;;;;;;;8.13;3.35;;;;;;;;;;6217706;23;20004;-78
2023/05/29 13:31:21;;;;;;;7.78;3.50;;;;;;;;;;6217275;23;19996;-78
2023/05/29 13:33:50;;;;;;;5.47;3.40;;;;;;;;;;6193312;23;20054;-78
2023/05/29 13:36:17;;;;;;;4.70;3.08;;;;;;;;;;6192035;23;20012;-79
2023/05/29 13:38:44;;;;;;;6.05;3.05;;;;;;;;;;6193831;23;20047;-79
2023/05/29 13:41:12;;;;;;;9.93;3.67;;;26.60;63.00;;;;;;6219327;23;20009;-78
2023/05/29 13:43:38;;;;;;;5.15;3.20;;;;;;;;;;6168537;23;20095;-79
2023/05/29 13:46:09;;;;;;;6.47;3.65;;;;;;;;;;6192079;23;20092;-79
2023/05/29 13:48:37;;;;;;;8.35;3.55;;;26.60;62.90;;;;;;6220589;23;20008;-79
2023/05/29 13:51:13;;;;;;;6.88;3.72;;;;;;;;;;6220196;23;20020;-79
2023/05/29 13:53:40;;;;;;;;;;;26.50;62.20;;;;;;6194522;23;20084;-81
2023/05/29 13:56:06;;;;;;;7.38;3.67;;;;;;;;;;6160147;23;19946;-80
2023/05/29 13:58:33;;;;;;;5.05;3.20;;;;;;;;;;6188460;23;20454;-79
2023/05/29 14:01:14;;;;;;;8.60;3.10;;;26.60;62.40;;;;;;6191876;23;20020;-79
2023/05/29 14:03:54;;;;;;;7.95;3.45;;;26.60;63.50;;;;;;6220627;23;20004;-79
2023/05/29 14:06:44;;;;;;;5.53;3.50;;;26.70;63.40;;;;;;6194615;23;20474;-79
2023/05/29 14:09:59;;;;;;;6.80;3.53;;;26.90;63.60;;;;;;6220225;23;20055;-80
2023/05/29 14:12:49;;;;;;;8.68;2.85;;;27.00;63.60;;;;;;6193815;23;20000;-78
2023/05/29 14:15:21;;;;;;;5.65;3.20;;;;;;;;;;6218581;23;20028;-79
2023/05/29 14:17:48;;;;;;;6.55;3.20;;;;;;;;;;6193539;23;20015;-77
2023/05/29 14:20:38;;;;;;;7.50;3.30;;;26.90;64.50;;;;;;6216824;23;20449;-78
2023/05/29 14:23:13;;;;;;;7.13;3.40;;;;;;;;;;6215872;23;20201;-78
2023/05/29 14:25:40;;;;;;;6.45;3.28;;;26.70;64.80;;;;;;6190294;23;20040;-78
2023/05/29 14:28:06;;;;;;;6.65;3.17;;;;;;;;;;6189392;23;20455;-79
2023/05/29 14:30:32;;;;;;;6.32;3.20;;;;;;;;;;6189046;23;20004;-77
2023/05/29 14:32:59;;;;;;;5.78;2.83;;;;;;;;;;6189032;23;19996;-79
2023/05/29 14:35:25;;;;;;;8.00;3.13;;;26.60;64.60;;;;;;6217851;23;20008;-77
2023/05/29 14:37:51;;;;;;;5.97;3.10;;;;;;;;;;6188407;23;20387;-78
2023/05/29 14:40:21;;;;;;;5.57;3.35;;;;;;;;;;6213373;23;20421;-78
2023/05/29 14:42:47;;;;;;;8.02;3.78;;;;;;;;;;6187669;23;20055;-77
2023/05/29 14:45:13;;;;;;;7.03;3.67;;;;;;;;;;6188508;23;20008;-77
2023/05/29 14:47:41;;;;;;;6.97;3.33;;;26.50;64.50;;;;;;6216532;23;20008;-79
2023/05/29 14:50:08;;;;;;;6.80;3.00;;;;;;;;;;6215547;23;20013;-77
2023/05/29 14:52:34;;;;;;;8.07;3.33;;;;;;;;;;6190713;23;20001;-77
2023/05/29 14:55:10;;;;;;;8.75;2.92;;;26.70;63.10;;;;;;6191052;23;20027;-77
2023/05/29 14:57:37;;;;;;;5.68;3.40;;;;;;;;;;6190477;23;20005;-78
2023/05/29 15:00:09;;;;;;;5.82;3.10;;;26.80;64.10;;;;;;6192315;23;20318;-78
2023/05/29 15:02:41;;;;;;;6.40;3.20;;;26.80;63.70;;;;;;6188401;23;20012;-77
2023/05/29 15:05:08;;;;;;;4.90;3.17;;;;;;;;;;6190329;23;20021;-81
2023/05/29 15:07:34;;;;;;;6.78;3.47;;;;;;;;;;6190262;23;20009;-78
2023/05/29 15:10:00;;;;;;;6.07;2.90;;;;;;;;;;6187422;23;20009;-78
2023/05/29 15:12:27;;;;;;;5.53;3.30;;;;;;;;;;6189059;23;20001;-77
2023/05/29 15:14:54;;;;;;;5.97;3.03;;;;;;;;;;6187428;23;20008;-76
2023/05/29 15:17:29;;;;;;;6.88;3.13;;;;;;;;;;6189805;23;20015;-78
2023/05/29 15:19:57;;;;;;;5.60;2.90;;;;;;;;;;6216924;23;20008;-78
2023/05/29 15:22:24;;;;;;;4.70;2.97;;;;;;;;;;6191051;23;20329;-78
2023/05/29 15:25:00;;;;;;;5.60;2.70;;;;;;;;;;6190133;23;20008;-78
2023/05/29 15:27:30;;;;;;;8.30;3.17;;;;;;;;;;6189275;23;20005;-77
2023/05/29 15:30:21;;;;;;;5.95;2.88;;;26.50;62.90;;;;;;6189118;23;20001;-81
2023/05/29 15:32:47;;;;;;;6.72;3.60;;;;;;;;;;6187524;23;20001;-78
2023/05/29 15:35:14;;;;;;;4.97;3.00;;;26.30;63.00;;;;;;6189047;23;19997;-77
2023/05/29 15:37:42;;;;;;;7.63;3.10;;;26.30;63.10;;;;;;6188627;23;20064;-78
2023/05/29 15:40:09;;;;;;;6.95;3.00;;;;;;;;;;6188484;23;20004;-80
2023/05/29 15:42:38;;;;;;;5.07;2.85;;;;;;;;;;6186359;23;20012;-81
2023/05/29 15:45:05;;;;;;;5.68;3.17;;;;;;;;;;6214964;23;20059;-80
2023/05/29 15:47:31;;;;;;;5.05;3.13;;;;;;;;;;6164958;23;20005;-78
2023/05/29 15:49:58;;;;;;;4.88;2.85;;;26.20;62.90;;;;;;6215353;23;20023;-77
2023/05/29 15:52:25;;;;;;;5.07;2.90;;;;;;;;;;6187848;23;20083;-78
2023/05/29 15:54:55;;;;;;;6.03;2.80;;;;;;;;;;6162858;23;20090;-78
2023/05/29 15:57:24;;;;;;;6.22;2.80;;;;;;;;;;6214485;23;20072;-78